Macon, Arkansas
Current Conditions -  °F | °C
As of 2:58 PM on Saturday 22 Nov 2014 (Local Time) from KLRF Reporting Station
Scattered Clouds Scattered Clouds  
Wind Chill: 66°   Ceiling: Unl
Heat Index: 66°   Visibility: 10mi
Dew Point: 51°   Wind: 6mph
Humidity: 59%   Direction: 120°ESE
Pressure: 30.02"   Gusts: NA
Location:  34.9092°N, 92.1561°W
Report Text: KLRF 222058Z AUTO 12005KT 10SM SCT080 19/11 A3002 RMK AO2 SLP168 T01880107 57038
Loading
Personal Weather Stations






























Interactive Weather Map New forecast layout! Learn more

10-Day Weather Forecast

Advertisements
Track Severe Weather on mobile